Time;durP1;ratioP1;P1;durP2;ratioP2;P2;SDS_P1;SDS_P2;PMS_P1;PMS_P2;Temp;Humidity;BMP_temperature;BMP_pressure;BME280_temperature;BME280_humidity;BME280_pressure;Samples;Min_cycle;Max_cycle;Signal;HPM_P1;HPM_P2
2022/01/09 00:00:00;;;;;;;7.77;4.70;;;4.90;99.90;;;;;;4925084;29;20040;-68
2022/01/09 00:02:25;;;;;;;5.20;3.75;;;4.90;99.90;;;;;;4921450;29;20145;-69
2022/01/09 00:04:51;;;;;;;5.90;3.73;;;4.90;99.90;;;;;;4919414;29;20056;-68
2022/01/09 00:07:17;;;;;;;4.90;3.60;;;4.90;99.90;;;;;;4922238;29;20063;-68
2022/01/09 00:09:44;;;;;;;5.50;4.00;;;4.90;99.90;;;;;;4915564;29;20459;-68
2022/01/09 00:12:11;;;;;;;6.10;4.30;;;4.90;99.90;;;;;;4921628;29;20044;-68
2022/01/09 00:14:37;;;;;;;6.57;4.28;;;4.90;99.90;;;;;;4925526;29;20048;-68
2022/01/09 00:17:03;;;;;;;5.87;4.40;;;4.90;99.90;;;;;;4920408;29;20787;-68
2022/01/09 00:19:28;;;;;;;5.22;3.97;;;4.90;99.90;;;;;;4924735;29;20134;-68
2022/01/09 00:21:54;;;;;;;6.20;4.47;;;4.90;99.90;;;;;;4913956;29;20043;-68
2022/01/09 00:24:20;;;;;;;6.15;4.40;;;4.90;99.90;;;;;;4919364;29;20044;-68
2022/01/09 00:26:45;;;;;;;5.80;4.17;;;4.90;99.90;;;;;;4920658;29;20058;-68
2022/01/09 00:29:11;;;;;;;6.87;4.70;;;4.90;99.90;;;;;;4918168;29;20971;-68
2022/01/09 00:31:37;;;;;;;7.00;4.77;;;4.90;99.90;;;;;;4916023;29;20497;-68
2022/01/09 00:34:03;;;;;;;5.90;4.03;;;4.90;99.90;;;;;;4921265;29;20538;-68
2022/01/09 00:36:30;;;;;;;7.38;4.40;;;4.90;99.90;;;;;;4927306;29;20316;-68
2022/01/09 00:38:56;;;;;;;7.10;4.10;;;4.90;99.90;;;;;;4925137;29;20083;-68
2022/01/09 00:41:22;;;;;;;6.57;4.00;;;5.00;99.90;;;;;;4924200;29;20078;-69
2022/01/09 00:43:47;;;;;;;6.47;4.07;;;4.90;99.90;;;;;;4916170;29;20357;-68
2022/01/09 00:46:13;;;;;;;6.87;4.70;;;4.90;99.90;;;;;;4923736;29;20079;-67
2022/01/09 00:48:38;;;;;;;6.77;4.63;;;5.00;99.90;;;;;;4922755;29;20044;-67
2022/01/09 00:51:04;;;;;;;7.20;5.00;;;4.90;99.90;;;;;;4924558;29;20150;-68
2022/01/09 00:53:30;;;;;;;6.80;5.13;;;5.00;99.90;;;;;;4922913;29;20039;-68
2022/01/09 00:55:55;;;;;;;8.87;4.90;;;4.90;99.90;;;;;;4922937;29;20210;-67
2022/01/09 00:58:21;;;;;;;8.47;4.93;;;5.00;99.90;;;;;;4926684;29;20091;-67
2022/01/09 01:00:46;;;;;;;6.97;4.47;;;5.00;99.90;;;;;;4920428;29;20058;-67
2022/01/09 01:03:12;;;;;;;6.83;4.27;;;5.00;99.90;;;;;;4927485;29;20568;-67
2022/01/09 01:05:37;;;;;;;5.07;3.90;;;5.00;99.90;;;;;;4920396;29;20056;-67
2022/01/09 01:08:04;;;;;;;5.97;4.17;;;5.00;99.90;;;;;;4921943;29;20504;-67
2022/01/09 01:10:29;;;;;;;6.78;4.85;;;5.00;99.90;;;;;;4930520;28;20043;-67
2022/01/09 01:12:55;;;;;;;5.50;4.03;;;5.00;99.90;;;;;;4920484;29;20048;-67
2022/01/09 01:15:21;;;;;;;6.07;4.00;;;5.00;99.90;;;;;;4923346;29;20044;-67
2022/01/09 01:17:47;;;;;;;6.53;4.10;;;5.00;99.90;;;;;;4931478;29;20086;-66
2022/01/09 01:20:13;;;;;;;6.57;4.20;;;5.00;99.90;;;;;;4922441;29;20118;-67
2022/01/09 01:22:40;;;;;;;5.35;4.13;;;5.10;99.90;;;;;;4921944;29;20047;-67
2022/01/09 01:25:07;;;;;;;7.05;3.58;;;5.10;99.90;;;;;;4917583;29;20045;-68
2022/01/09 01:27:32;;;;;;;5.55;4.05;;;5.10;99.90;;;;;;4918532;29;20054;-67
2022/01/09 01:30:01;;;;;;;5.20;3.67;;;5.10;99.90;;;;;;4920571;29;20048;-67
2022/01/09 01:32:26;;;;;;;6.75;3.83;;;5.10;99.90;;;;;;4917488;29;20054;-67
2022/01/09 01:34:52;;;;;;;5.70;3.60;;;5.10;99.90;;;;;;4922691;29;20040;-67
2022/01/09 01:37:18;;;;;;;5.00;3.17;;;5.10;99.90;;;;;;4924735;29;20370;-67
2022/01/09 01:39:43;;;;;;;6.10;3.67;;;5.20;99.90;;;;;;4916724;29;20040;-67
2022/01/09 01:42:09;;;;;;;7.17;3.50;;;5.20;99.90;;;;;;4917246;29;20036;-67
2022/01/09 01:44:43;;;;;;;5.80;3.57;;;5.20;99.90;;;;;;4927099;29;20093;-67
2022/01/09 01:47:09;;;;;;;6.45;3.97;;;5.20;99.90;;;;;;4925250;29;20048;-67
2022/01/09 01:49:34;;;;;;;6.87;4.10;;;5.20;99.90;;;;;;4912341;29;20571;-67
2022/01/09 01:52:00;;;;;;;4.90;3.07;;;5.30;99.90;;;;;;4924988;29;20082;-67
2022/01/09 01:54:27;;;;;;;8.13;3.30;;;5.30;99.90;;;;;;4958350;23;20047;-67
2022/01/09 01:56:53;;;;;;;11.18;3.05;;;5.30;99.90;;;;;;4939696;28;20367;-67
2022/01/09 01:59:21;;;;;;;13.45;3.35;;;5.40;99.90;;;;;;4952640;28;20523;-67
2022/01/09 02:01:47;;;;;;;10.48;3.22;;;5.40;99.90;;;;;;4951218;28;20472;-67
2022/01/09 02:04:12;;;;;;;9.37;3.47;;;5.50;99.90;;;;;;4948603;28;20050;-68
2022/01/09 02:06:38;;;;;;;15.13;3.00;;;5.50;99.90;;;;;;4958081;28;20047;-68
2022/01/09 02:09:04;;;;;;;7.23;2.83;;;5.60;99.90;;;;;;4945751;28;20105;-68
2022/01/09 02:11:31;;;;;;;13.07;3.10;;;5.60;99.90;;;;;;4951086;28;20102;-68
2022/01/09 02:13:57;;;;;;;;;;;5.60;99.90;;;;;;4955370;28;20129;-68
2022/01/09 02:16:23;;;;;;;15.75;2.60;;;5.70;99.90;;;;;;4949415;28;20247;-68
2022/01/09 02:18:50;;;;;;;12.17;2.50;;;5.70;99.90;;;;;;4958670;28;20039;-66
2022/01/09 02:21:17;;;;;;;19.08;2.83;;;5.80;99.90;;;;;;4953213;28;20114;-66
2022/01/09 02:23:46;;;;;;;20.58;2.80;;;5.90;99.90;;;;;;4956144;28;20093;-66
2022/01/09 02:26:24;;;;;;;23.40;3.17;;;5.80;99.90;;;;;;4954394;28;20034;-66
2022/01/09 02:28:52;;;;;;;21.92;3.40;;;5.90;99.90;;;;;;4947492;28;20042;-66
2022/01/09 02:31:18;;;;;;;12.90;2.75;;;5.90;99.90;;;;;;4947363;28;20383;-66
2022/01/09 02:33:43;;;;;;;15.70;2.57;;;5.90;99.90;;;;;;4955968;28;20050;-67
2022/01/09 02:36:09;;;;;;;21.07;4.07;;;6.00;99.90;;;;;;4946682;28;20051;-66
2022/01/09 02:38:35;;;;;;;26.60;3.73;;;6.00;99.90;;;;;;4944055;28;20062;-66
2022/01/09 02:41:01;;;;;;;31.73;3.43;;;6.00;99.90;;;;;;4949714;28;20500;-66
2022/01/09 02:43:27;;;;;;;20.90;3.63;;;6.00;99.90;;;;;;4954840;28;20299;-66
2022/01/09 02:48:32;;;;;;;23.98;3.67;;;6.10;99.90;;;;;;4960932;28;20059;-66
2022/01/09 02:51:04;;;;;;;20.27;4.55;;;6.10;99.90;;;;;;4960232;28;20193;-66
2022/01/09 02:53:34;;;;;;;25.40;3.97;;;6.10;99.90;;;;;;4944079;28;20038;-67
2022/01/09 02:55:59;;;;;;;22.20;2.80;;;6.10;99.90;;;;;;4933497;28;20047;-66
2022/01/09 02:58:25;;;;;;;24.13;4.00;;;6.10;99.90;;;;;;4953129;28;20412;-66
2022/01/09 03:00:50;;;;;;;30.37;3.43;;;6.20;99.90;;;;;;4960434;28;20483;-66
2022/01/09 03:03:16;;;;;;;34.47;5.97;;;6.20;99.90;;;;;;4956959;28;20462;-66
2022/01/09 03:05:42;;;;;;;42.47;5.20;;;6.20;99.90;;;;;;4958288;28;20045;-66
2022/01/09 03:08:08;;;;;;;29.80;5.87;;;6.20;99.90;;;;;;4962357;28;20411;-66
2022/01/09 03:10:34;;;;;;;31.30;4.43;;;6.30;99.90;;;;;;4956655;28;20050;-67
2022/01/09 03:13:00;;;;;;;26.80;5.60;;;6.30;99.90;;;;;;4950691;28;20042;-66
2022/01/09 03:15:26;;;;;;;27.10;4.40;;;6.30;99.90;;;;;;4951919;28;20563;-66
2022/01/09 03:17:52;;;;;;;28.33;4.43;;;6.30;99.90;;;;;;4961807;28;20053;-66
2022/01/09 03:20:24;;;;;;;39.70;6.70;;;6.40;99.90;;;;;;4958045;28;20143;-66
2022/01/09 03:22:51;;;;;;;33.10;5.05;;;6.40;99.90;;;;;;4948807;28;20043;-66
2022/01/09 03:25:16;;;;;;;24.45;4.60;;;6.50;99.90;;;;;;4938325;28;20047;-66
2022/01/09 03:27:49;;;;;;;37.63;4.17;;;6.40;99.90;;;;;;4955439;28;20463;-67
2022/01/09 03:30:16;;;;;;;30.15;3.97;;;6.40;99.90;;;;;;4956020;28;20307;-67
2022/01/09 03:32:42;;;;;;;28.80;4.32;;;6.50;99.90;;;;;;4971717;28;20078;-67
2022/01/09 03:35:16;;;;;;;26.80;4.18;;;6.40;99.90;;;;;;4971931;28;20093;-66
2022/01/09 03:37:43;;;;;;;35.45;4.47;;;6.40;99.90;;;;;;4972721;28;20488;-66
2022/01/09 03:40:19;;;;;;;28.70;3.92;;;6.50;99.90;;;;;;4972636;28;20400;-66
2022/01/09 03:42:46;;;;;;;28.03;3.40;;;6.40;99.90;;;;;;4939327;28;20382;-67
2022/01/09 03:45:12;;;;;;;23.38;5.05;;;6.50;99.90;;;;;;4953688;28;20074;-66
2022/01/09 03:47:38;;;;;;;31.80;6.93;;;6.40;99.90;;;;;;4954224;28;20522;-66
2022/01/09 03:50:07;;;;;;;27.17;3.53;;;6.40;99.90;;;;;;4964204;28;20188;-66
2022/01/09 03:52:38;;;;;;;21.50;4.38;;;6.50;99.90;;;;;;4958113;28;20275;-67
2022/01/09 03:55:09;;;;;;;23.40;3.35;;;6.50;99.90;;;;;;4952162;29;20098;-67
2022/01/09 03:57:34;;;;;;;16.85;2.72;;;6.50;99.90;;;;;;4953396;28;20043;-67
2022/01/09 04:00:00;;;;;;;20.87;3.37;;;6.50;99.90;;;;;;4962891;28;20155;-66
2022/01/09 04:02:26;;;;;;;21.83;2.92;;;6.40;99.90;;;;;;4972726;28;20118;-67
2022/01/09 04:04:52;;;;;;;23.73;3.50;;;6.40;99.90;;;;;;4974163;28;20087;-67
2022/01/09 04:07:17;;;;;;;33.07;4.43;;;6.50;99.90;;;;;;4972200;28;20046;-67
2022/01/09 04:09:45;;;;;;;25.40;4.03;;;6.40;99.90;;;;;;4971641;28;20073;-67
2022/01/09 04:12:30;;;;;;;22.10;2.88;;;6.50;99.90;;;;;;4963235;28;20047;-67
2022/01/09 04:14:56;;;;;;;19.30;2.40;;;6.40;99.90;;;;;;4957544;28;20043;-70
2022/01/09 04:17:37;;;;;;;25.33;3.83;;;6.40;99.90;;;;;;4964728;28;20458;-70
2022/01/09 04:20:04;;;;;;;30.67;3.10;;;6.40;99.90;;;;;;4957329;28;20050;-69
2022/01/09 04:22:30;;;;;;;12.90;3.22;;;6.40;99.90;;;;;;4959800;28;20066;-66
2022/01/09 04:24:55;;;;;;;18.93;2.93;;;6.40;99.90;;;;;;4965805;28;20038;-67
2022/01/09 04:27:21;;;;;;;19.33;2.63;;;6.40;99.90;;;;;;4959341;28;20585;-67
2022/01/09 04:29:49;;;;;;;16.50;2.90;;;6.40;99.90;;;;;;4965454;28;20058;-68
2022/01/09 04:32:15;;;;;;;25.55;2.95;;;6.40;99.90;;;;;;4965975;28;20194;-67
2022/01/09 04:34:40;;;;;;;19.30;2.33;;;6.40;99.90;;;;;;4958697;28;20050;-67
2022/01/09 04:37:06;;;;;;;16.17;1.83;;;6.30;99.90;;;;;;4951615;28;20043;-68
2022/01/09 04:39:32;;;;;;;18.93;2.80;;;6.30;99.90;;;;;;4957308;28;20190;-68
2022/01/09 04:41:57;;;;;;;19.10;2.57;;;6.30;99.90;;;;;;4938588;28;20497;-67
2022/01/09 04:44:24;;;;;;;20.00;2.60;;;6.30;99.90;;;;;;4958122;28;20297;-68
2022/01/09 04:46:57;;;;;;;15.50;2.78;;;6.30;99.90;;;;;;4953011;28;20047;-67
2022/01/09 04:49:26;;;;;;;11.90;2.38;;;6.30;99.90;;;;;;4953494;28;20110;-66
2022/01/09 04:51:52;;;;;;;16.95;3.38;;;6.20;99.90;;;;;;4960780;28;20043;-69
2022/01/09 04:54:20;;;;;;;19.20;2.72;;;6.30;99.90;;;;;;4941941;28;20127;-66
2022/01/09 04:56:46;;;;;;;20.63;3.08;;;6.30;99.90;;;;;;4958114;28;20672;-67
2022/01/09 04:59:11;;;;;;;15.53;2.60;;;6.30;99.90;;;;;;4949208;28;20046;-67
2022/01/09 05:01:37;;;;;;;12.17;1.97;;;6.30;99.90;;;;;;4958169;28;20457;-67
2022/01/09 05:04:02;;;;;;;17.27;2.10;;;6.20;99.90;;;;;;4970750;28;20047;-67
2022/01/09 05:06:28;;;;;;;17.17;2.37;;;6.20;99.90;;;;;;4960972;28;20047;-67
2022/01/09 05:08:54;;;;;;;12.67;3.37;;;6.10;99.90;;;;;;4952187;28;20043;-67
2022/01/09 05:11:19;;;;;;;11.87;1.80;;;6.20;99.90;;;;;;4955257;28;20459;-68
2022/01/09 05:13:45;;;;;;;13.47;2.13;;;6.10;99.90;;;;;;4971085;28;20093;-68
2022/01/09 05:16:10;;;;;;;14.37;2.10;;;6.10;99.90;;;;;;4970664;28;20065;-68
2022/01/09 05:18:52;;;;;;;15.93;2.13;;;6.10;99.90;;;;;;4969549;28;20078;-68
2022/01/09 05:21:18;;;;;;;17.05;1.90;;;6.10;99.90;;;;;;4969020;28;20325;-67
2022/01/09 05:23:44;;;;;;;12.45;1.65;;;6.10;99.90;;;;;;4962093;28;20145;-67
2022/01/09 05:26:09;;;;;;;19.05;2.38;;;6.10;99.90;;;;;;4955723;28;20035;-68
2022/01/09 05:28:35;;;;;;;20.00;2.13;;;6.10;99.90;;;;;;4961037;28;20039;-67
2022/01/09 05:31:00;;;;;;;11.20;1.97;;;6.10;99.90;;;;;;4955750;28;20049;-67
2022/01/09 05:33:26;;;;;;;17.87;2.43;;;6.10;99.90;;;;;;4951982;28;20441;-67
2022/01/09 05:35:51;;;;;;;13.17;2.60;;;6.10;99.90;;;;;;4957128;28;20039;-68
2022/01/09 05:38:18;;;;;;;16.43;2.43;;;6.10;99.90;;;;;;4945572;28;20070;-67
2022/01/09 05:40:44;;;;;;;20.02;2.92;;;6.10;99.90;;;;;;4971614;28;20048;-67
2022/01/09 05:43:11;;;;;;;9.45;2.42;;;6.10;99.90;;;;;;4954755;28;20081;-67
2022/01/09 05:45:37;;;;;;;23.83;2.10;;;6.10;99.90;;;;;;4957744;28;20186;-67
2022/01/09 05:48:03;;;;;;;11.90;1.70;;;6.10;99.90;;;;;;4952275;28;20528;-67
2022/01/09 05:50:28;;;;;;;17.10;2.60;;;6.10;99.90;;;;;;4953243;28;21827;-67
2022/01/09 05:52:54;;;;;;;16.13;2.10;;;6.10;99.90;;;;;;4950081;28;20065;-67
2022/01/09 05:55:20;;;;;;;11.20;1.77;;;6.00;99.90;;;;;;4957071;28;20039;-67
2022/01/09 05:57:45;;;;;;;15.70;3.13;;;6.00;99.90;;;;;;4955834;28;20511;-67
2022/01/09 06:00:11;;;;;;;11.57;2.17;;;6.00;99.90;;;;;;4957716;28;20073;-67
2022/01/09 06:02:37;;;;;;;14.77;2.53;;;6.00;99.90;;;;;;4958978;28;20285;-67
2022/01/09 06:05:03;;;;;;;23.23;3.07;;;6.00;99.90;;;;;;4954497;28;20043;-67
2022/01/09 06:07:28;;;;;;;16.05;2.83;;;6.00;99.90;;;;;;4943851;28;20051;-67
2022/01/09 06:09:54;;;;;;;24.37;2.97;;;6.00;99.90;;;;;;4954749;28;20453;-68
2022/01/09 06:12:19;;;;;;;18.20;2.07;;;6.00;99.90;;;;;;4960765;28;20285;-68
2022/01/09 06:14:45;;;;;;;17.73;3.37;;;6.00;99.90;;;;;;4957958;28;20051;-68
2022/01/09 06:17:10;;;;;;;10.03;2.33;;;6.00;99.90;;;;;;4957090;28;20183;-68
2022/01/09 06:19:36;;;;;;;16.37;3.00;;;6.00;99.90;;;;;;4953540;28;20049;-68
2022/01/09 06:22:02;;;;;;;17.60;2.57;;;6.00;99.90;;;;;;4939184;28;20464;-68
2022/01/09 06:24:28;;;;;;;18.05;2.50;;;6.00;99.90;;;;;;4957661;28;20118;-68
2022/01/09 06:26:53;;;;;;;13.20;2.17;;;5.90;99.90;;;;;;4960460;28;20130;-68
2022/01/09 06:29:19;;;;;;;13.07;1.90;;;6.00;99.90;;;;;;4954238;28;20047;-68
2022/01/09 06:31:45;;;;;;;6.60;1.63;;;6.00;99.90;;;;;;4957741;28;20043;-68
2022/01/09 06:34:13;;;;;;;9.68;1.77;;;6.00;99.90;;;;;;4947319;28;20047;-69
2022/01/09 06:36:39;;;;;;;12.02;1.52;;;6.00;99.90;;;;;;4945294;28;20058;-68
2022/01/09 06:39:05;;;;;;;15.52;2.47;;;6.00;99.90;;;;;;4948846;28;20057;-68
2022/01/09 06:41:32;;;;;;;11.13;2.37;;;5.90;99.90;;;;;;4952507;28;20039;-68
2022/01/09 06:43:58;;;;;;;11.23;2.25;;;5.90;99.90;;;;;;4956359;28;20076;-68
2022/01/09 06:46:25;;;;;;;20.47;3.23;;;5.90;99.90;;;;;;4955751;28;20451;-69
2022/01/09 06:48:51;;;;;;;7.10;2.10;;;5.80;99.90;;;;;;4956375;28;20058;-68
2022/01/09 06:51:17;;;;;;;11.82;2.65;;;5.80;99.90;;;;;;4952484;28;20043;-68
2022/01/09 06:53:43;;;;;;;15.80;2.30;;;5.70;99.90;;;;;;4955410;28;20298;-68
2022/01/09 06:56:08;;;;;;;14.77;2.50;;;5.60;99.90;;;;;;4956545;28;20448;-68
2022/01/09 06:58:36;;;;;;;11.13;2.00;;;5.60;99.90;;;;;;4951992;28;20098;-68
2022/01/09 07:01:04;;;;;;;13.85;2.38;;;5.60;99.90;;;;;;4944676;28;20047;-68
2022/01/09 07:03:30;;;;;;;10.40;2.25;;;5.50;99.90;;;;;;4961081;28;20045;-69
2022/01/09 07:05:55;;;;;;;10.77;2.77;;;5.50;99.90;;;;;;4937318;28;20051;-68
2022/01/09 07:08:21;;;;;;;13.30;2.83;;;5.40;99.90;;;;;;4949975;28;20447;-69
2022/01/09 07:10:47;;;;;;;14.07;2.50;;;5.40;99.90;;;;;;4957401;28;20391;-69
2022/01/09 07:13:13;;;;;;;12.97;1.97;;;5.40;99.90;;;;;;4957853;28;20024;-69
2022/01/09 07:15:39;;;;;;;6.95;1.80;;;5.40;99.90;;;;;;4949403;28;20035;-66
2022/01/09 07:18:04;;;;;;;13.67;1.67;;;5.40;99.90;;;;;;4956014;28;20186;-70
2022/01/09 07:20:30;;;;;;;12.60;2.17;;;5.30;99.90;;;;;;4963743;28;20055;-70
2022/01/09 07:22:56;;;;;;;9.67;1.20;;;5.30;99.90;;;;;;4965062;28;20039;-67
2022/01/09 07:25:21;;;;;;;11.27;1.20;;;5.30;99.90;;;;;;4962212;28;20043;-67
2022/01/09 07:27:47;;;;;;;11.53;2.43;;;5.40;99.90;;;;;;4957313;28;20086;-67
2022/01/09 07:30:12;;;;;;;5.87;1.50;;;5.40;99.90;;;;;;4937794;28;20140;-67
2022/01/09 07:32:40;;;;;;;8.80;1.83;;;5.40;99.90;;;;;;4962426;28;20042;-69
2022/01/09 07:35:07;;;;;;;12.55;1.30;;;5.40;99.90;;;;;;4962044;28;20058;-69
2022/01/09 07:37:33;;;;;;;8.20;1.63;;;5.40;99.90;;;;;;4959620;28;20039;-69
2022/01/09 07:39:59;;;;;;;9.75;1.63;;;5.30;99.90;;;;;;4957676;28;20393;-69
2022/01/09 07:42:24;;;;;;;5.18;0.85;;;5.40;99.90;;;;;;4960289;28;20035;-68
2022/01/09 07:44:50;;;;;;;8.30;1.17;;;5.30;99.90;;;;;;4964101;28;20043;-69
2022/01/09 07:47:16;;;;;;;10.07;1.20;;;5.40;99.90;;;;;;4958532;28;20279;-67
2022/01/09 07:49:41;;;;;;;7.83;1.10;;;5.40;99.90;;;;;;4959555;28;20518;-67
2022/01/09 07:52:07;;;;;;;7.83;0.97;;;5.30;99.90;;;;;;4968970;28;20400;-67
2022/01/09 07:54:32;;;;;;;7.13;2.00;;;5.40;99.90;;;;;;5004622;23;20070;-85
2022/01/09 07:56:58;;;;;;;8.50;2.07;;;5.40;99.90;;;;;;4981444;23;20050;-69
2022/01/09 07:59:24;;;;;;;8.47;1.07;;;5.30;99.90;;;;;;4973207;28;20075;-69
2022/01/09 08:01:50;;;;;;;6.03;1.07;;;5.40;99.90;;;;;;4969539;28;20290;-69
2022/01/09 08:04:16;;;;;;;4.03;1.42;;;5.40;99.90;;;;;;4980828;28;20104;-70
2022/01/09 08:06:42;;;;;;;15.23;1.73;;;5.40;99.90;;;;;;4975820;28;20054;-70
2022/01/09 08:09:07;;;;;;;9.43;2.03;;;5.40;99.90;;;;;;4979131;28;20042;-70
2022/01/09 08:11:33;;;;;;;15.40;1.57;;;5.40;99.90;;;;;;4990761;28;20050;-70
2022/01/09 08:13:59;;;;;;;9.40;1.77;;;5.50;99.90;;;;;;4978080;28;20054;-70
2022/01/09 08:16:24;;;;;;;6.67;1.57;;;5.40;99.90;;;;;;4968765;28;20049;-70
2022/01/09 08:18:51;;;;;;;9.70;1.03;;;5.30;99.90;;;;;;4977259;28;20038;-70
2022/01/09 08:21:20;;;;;;;8.88;1.17;;;5.30;99.90;;;;;;4973267;28;20097;-70
2022/01/09 08:23:47;;;;;;;5.82;1.90;;;5.30;99.90;;;;;;4981837;28;20177;-70
2022/01/09 08:26:14;;;;;;;10.00;1.60;;;5.30;99.90;;;;;;4975841;28;20042;-70
2022/01/09 08:28:44;;;;;;;8.50;2.10;;;5.30;99.90;;;;;;4989667;28;20049;-71
2022/01/09 08:31:10;;;;;;;7.47;2.28;;;5.30;99.90;;;;;;4973604;28;20122;-70
2022/01/09 08:33:36;;;;;;;13.98;2.42;;;5.30;99.90;;;;;;4975215;28;20034;-70
2022/01/09 08:36:02;;;;;;;19.37;2.93;;;5.30;99.90;;;;;;4975091;28;20057;-70
2022/01/09 08:38:27;;;;;;;12.40;3.83;;;5.30;99.90;;;;;;4974137;28;20069;-70
2022/01/09 08:40:53;;;;;;;10.63;2.20;;;5.40;99.90;;;;;;4981417;28;20073;-70
2022/01/09 08:43:19;;;;;;;12.07;2.23;;;5.40;99.90;;;;;;4979646;28;20531;-70
2022/01/09 08:45:44;;;;;;;12.93;2.33;;;5.50;99.90;;;;;;4972736;28;20054;-69
2022/01/09 08:48:10;;;;;;;15.80;2.90;;;5.50;99.90;;;;;;4977724;28;20662;-69
2022/01/09 08:50:36;;;;;;;18.90;2.67;;;5.50;99.90;;;;;;4974606;28;20439;-70
2022/01/09 08:53:02;;;;;;;11.13;2.57;;;5.50;99.90;;;;;;4973721;28;20046;-70
2022/01/09 08:55:27;;;;;;;6.78;1.75;;;5.40;99.90;;;;;;4975529;28;20039;-70
2022/01/09 08:57:53;;;;;;;17.47;1.70;;;5.40;99.90;;;;;;4979812;28;20057;-70
2022/01/09 09:00:20;;;;;;;12.17;2.27;;;5.40;99.90;;;;;;4980287;28;20026;-70
2022/01/09 09:02:47;;;;;;;12.05;1.40;;;5.40;99.90;;;;;;4977436;28;20057;-70
2022/01/09 09:05:12;;;;;;;6.40;1.50;;;5.40;99.90;;;;;;4972197;28;20066;-70
2022/01/09 09:07:38;;;;;;;8.17;2.33;;;5.30;99.90;;;;;;4970128;28;20241;-70
2022/01/09 09:10:04;;;;;;;7.53;1.30;;;5.30;99.90;;;;;;4979092;28;20070;-70
2022/01/09 09:12:31;;;;;;;5.70;1.27;;;5.30;99.90;;;;;;4974356;28;20049;-70
2022/01/09 09:15:03;;;;;;;4.85;0.88;;;5.30;99.90;;;;;;4975391;28;20369;-70
2022/01/09 09:17:30;;;;;;;7.20;1.20;;;5.30;99.90;;;;;;4973119;28;20126;-70
2022/01/09 09:19:56;;;;;;;6.72;1.42;;;5.30;99.90;;;;;;4970616;28;20395;-70
2022/01/09 09:22:22;;;;;;;13.23;1.50;;;5.30;99.90;;;;;;4970453;28;20035;-71
2022/01/09 09:24:49;;;;;;;12.80;1.75;;;5.30;99.90;;;;;;4975119;28;20069;-71
2022/01/09 09:27:15;;;;;;;9.57;1.90;;;5.30;99.90;;;;;;4986262;28;20038;-71
2022/01/09 09:29:41;;;;;;;9.93;1.23;;;5.30;99.90;;;;;;4966347;28;20034;-71
2022/01/09 09:32:07;;;;;;;11.75;2.05;;;5.30;99.90;;;;;;4972737;28;20122;-71
2022/01/09 09:34:32;;;;;;;7.83;1.47;;;5.30;99.90;;;;;;4970575;28;20137;-71
2022/01/09 09:36:58;;;;;;;8.63;1.47;;;5.30;99.90;;;;;;4971443;28;20142;-71
2022/01/09 09:39:27;;;;;;;13.60;2.63;;;5.30;99.90;;;;;;4967528;28;20039;-71
2022/01/09 09:41:53;;;;;;;13.38;1.67;;;5.20;99.90;;;;;;4970755;28;20046;-70
2022/01/09 09:44:19;;;;;;;13.25;1.60;;;5.20;99.90;;;;;;4978536;28;20089;-71
2022/01/09 09:46:49;;;;;;;7.53;1.60;;;5.20;99.90;;;;;;4970747;28;20117;-71
2022/01/09 09:49:16;;;;;;;5.65;1.38;;;5.20;99.90;;;;;;4973217;28;20057;-71
2022/01/09 09:51:42;;;;;;;9.07;1.90;;;5.20;99.90;;;;;;4972566;28;20046;-71
2022/01/09 09:54:07;;;;;;;5.03;1.17;;;5.20;99.90;;;;;;4976888;28;20145;-71
2022/01/09 09:56:33;;;;;;;6.70;1.93;;;5.20;99.90;;;;;;4976802;28;20050;-71
2022/01/09 09:59:00;;;;;;;4.30;1.03;;;5.20;99.90;;;;;;4970140;28;20039;-70
2022/01/09 10:01:31;;;;;;;4.82;1.38;;;5.30;99.90;;;;;;4978342;28;20042;-70
2022/01/09 10:04:00;;;;;;;11.98;1.60;;;5.30;99.90;;;;;;4968927;28;20082;-71
2022/01/09 10:06:44;;;;;;;5.25;1.17;;;5.30;99.90;;;;;;4976891;28;20093;-70
2022/01/09 10:09:20;;;;;;;8.60;1.20;;;5.40;99.90;;;;;;4967891;28;20045;-75
2022/01/09 10:11:49;;;;;;;5.70;1.02;;;5.40;99.90;;;;;;4970690;28;20090;-75
2022/01/09 10:14:26;;;;;;;6.15;1.02;;;5.50;99.90;;;;;;4971927;28;20054;-70
2022/01/09 10:17:13;;;;;;;10.68;1.58;;;5.50;99.90;;;;;;4976250;28;20157;-69
2022/01/09 10:19:56;;;;;;;6.45;1.50;;;5.60;99.90;;;;;;4973572;28;20044;-70
2022/01/09 10:22:30;;;;;;;11.13;1.38;;;5.70;99.90;;;;;;4979334;28;20026;-70
2022/01/09 10:24:57;;;;;;;10.18;1.20;;;5.70;99.90;;;;;;4971570;28;20066;-70
2022/01/09 10:27:34;;;;;;;12.98;1.67;;;5.70;99.90;;;;;;4962781;28;20454;-70
2022/01/09 10:30:01;;;;;;;;;;;5.80;99.90;;;;;;4972464;28;20519;-70
2022/01/09 10:32:30;;;;;;;9.48;1.40;;;5.80;99.90;;;;;;4981358;28;19961;-70
2022/01/09 10:35:17;;;;;;;9.93;2.17;;;5.90;99.90;;;;;;4980700;28;20470;-70
2022/01/09 10:37:48;;;;;;;9.52;1.67;;;5.90;99.90;;;;;;4946205;28;20069;-70
2022/01/09 10:40:23;;;;;;;11.20;2.05;;;5.90;99.90;;;;;;4968147;28;20049;-71
2022/01/09 10:43:08;;;;;;;13.00;2.67;;;5.90;99.90;;;;;;4978789;28;20406;-70
2022/01/09 10:45:38;;;;;;;11.25;2.42;;;6.00;99.90;;;;;;4983845;28;20092;-71
2022/01/09 10:48:10;;;;;;;13.77;1.85;;;6.00;99.90;;;;;;4971133;28;20042;-70
2022/01/09 10:50:39;;;;;;;13.57;2.20;;;6.10;99.90;;;;;;4969565;28;20530;-70
2022/01/09 10:53:33;;;;;;;9.77;2.08;;;6.10;99.90;;;;;;4983028;28;20567;-70
2022/01/09 10:56:11;;;;;;;15.10;2.95;;;6.30;99.90;;;;;;4976923;28;20113;-71
2022/01/09 10:58:48;;;;;;;13.70;1.75;;;6.30;99.90;;;;;;4968850;28;20143;-71
2022/01/09 11:01:18;;;;;;;14.75;3.63;;;6.40;99.90;;;;;;4972873;28;20050;-70
2022/01/09 11:03:47;;;;;;;7.20;2.03;;;6.40;99.90;;;;;;4969039;28;20108;-71
2022/01/09 11:06:13;;;;;;;13.02;2.08;;;6.50;99.90;;;;;;4972925;28;20097;-70
2022/01/09 11:08:42;;;;;;;12.77;1.60;;;6.60;99.90;;;;;;4971893;28;22494;-70
2022/01/09 11:11:17;;;;;;;8.60;1.63;;;6.70;99.90;;;;;;4972221;28;20372;-70
2022/01/09 11:13:45;;;;;;;8.40;1.25;;;6.80;99.90;;;;;;4972023;28;20054;-70
2022/01/09 11:19:04;;;;;;;7.57;1.92;;;6.90;99.90;;;;;;4969633;28;20047;-70
2022/01/09 11:21:30;;;;;;;5.88;1.52;;;7.00;99.90;;;;;;4961568;28;20050;-70
2022/01/09 11:24:20;;;;;;;5.63;1.07;;;7.00;99.90;;;;;;4968613;28;20041;-71
2022/01/09 11:26:55;;;;;;;10.00;1.95;;;7.10;99.90;;;;;;4973766;28;20034;-71
2022/01/09 11:29:30;;;;;;;6.43;1.73;;;7.20;99.90;;;;;;4970065;28;20035;-70
2022/01/09 11:32:15;;;;;;;6.78;1.27;;;7.30;99.90;;;;;;4957936;28;20042;-70
2022/01/09 11:34:58;;;;;;;6.35;1.40;;;7.30;99.90;;;;;;4967478;28;20582;-73
2022/01/09 11:37:36;;;;;;;9.15;1.13;;;7.30;99.90;;;;;;4965626;28;20380;-71
2022/01/09 11:40:03;;;;;;;8.88;1.75;;;7.30;99.90;;;;;;4966752;28;20117;-71
2022/01/09 11:42:28;;;;;;;;;;;7.30;99.90;;;;;;4966197;28;20094;-71
2022/01/09 11:44:56;;;;;;;6.55;1.75;;;7.30;99.90;;;;;;4964279;28;20045;-73
2022/01/09 11:47:23;;;;;;;11.23;1.73;;;7.20;99.90;;;;;;4975294;28;20522;-70
2022/01/09 11:49:56;;;;;;;6.43;1.38;;;7.20;99.90;;;;;;4969274;28;20721;-74
2022/01/09 11:52:26;;;;;;;8.70;1.42;;;7.30;99.90;;;;;;4962784;28;20121;-71
2022/01/09 11:54:54;;;;;;;7.28;1.70;;;7.30;99.90;;;;;;4976419;28;20050;-70
2022/01/09 11:57:49;;;;;;;6.65;2.08;;;7.20;99.90;;;;;;4976498;28;20265;-71
2022/01/09 12:00:35;;;;;;;7.82;1.85;;;7.10;99.90;;;;;;4966121;28;20043;-71
2022/01/09 12:03:27;;;;;;;7.87;1.40;;;7.10;99.90;;;;;;4974844;28;20078;-71
2022/01/09 12:06:11;;;;;;;7.25;1.33;;;7.20;99.90;;;;;;4963403;28;20458;-70
2022/01/09 12:08:57;;;;;;;7.35;1.17;;;7.30;99.90;;;;;;4971979;28;20074;-74
2022/01/09 12:12:00;;;;;;;9.50;1.63;;;7.30;99.90;;;;;;4964664;28;20043;-70
2022/01/09 12:14:41;;;;;;;5.47;1.48;;;7.30;99.90;;;;;;4965721;28;20643;-70
2022/01/09 12:17:28;;;;;;;7.22;1.83;;;7.30;99.90;;;;;;4969465;28;20519;-70
2022/01/09 12:20:08;;;;;;;4.25;1.08;;;7.20;99.90;;;;;;4974434;28;20054;-70
2022/01/09 12:22:46;;;;;;;9.48;1.92;;;7.10;99.90;;;;;;4969670;28;20125;-70
2022/01/09 12:25:28;;;;;;;7.47;1.15;;;7.10;99.90;;;;;;4974901;28;20593;-71
2022/01/09 12:27:56;;;;;;;5.45;1.65;;;7.00;99.90;;;;;;4970914;28;20046;-70
2022/01/09 12:30:47;;;;;;;9.32;1.95;;;7.00;99.90;;;;;;4972377;28;20045;-70
2022/01/09 12:33:45;;;;;;;7.68;2.47;;;6.90;99.90;;;;;;4969730;28;20058;-70
2022/01/09 12:36:14;;;;;;;5.27;1.87;;;6.70;99.90;;;;;;4968715;28;20039;-70
2022/01/09 12:38:43;;;;;;;5.90;0.93;;;6.70;99.90;;;;;;4970144;28;20652;-70
2022/01/09 12:41:15;;;;;;;7.85;1.33;;;6.60;99.90;;;;;;4965965;28;20321;-71
2022/01/09 12:43:42;;;;;;;11.40;2.20;;;6.60;99.90;;;;;;4974529;28;20046;-72
2022/01/09 12:46:17;;;;;;;6.88;1.45;;;6.50;99.90;;;;;;4967991;28;20182;-73
2022/01/09 12:48:53;;;;;;;5.60;1.38;;;6.50;99.90;;;;;;4967830;28;20129;-72
2022/01/09 12:51:19;;;;;;;5.68;1.83;;;6.50;99.90;;;;;;4959884;28;20081;-73
2022/01/09 12:53:50;;;;;;;3.22;1.10;;;6.40;99.90;;;;;;4974457;28;20039;-71
2022/01/09 12:56:17;;;;;;;5.03;1.70;;;6.40;99.90;;;;;;4978502;28;20054;-72
2022/01/09 12:58:57;;;;;;;;;;;6.30;99.90;;;;;;4973305;28;20104;-70
2022/01/09 13:01:37;;;;;;;7.05;1.45;;;6.30;99.90;;;;;;4973366;28;20008;-70
2022/01/09 13:04:33;;;;;;;5.95;1.20;;;6.30;99.90;;;;;;4974249;28;20047;-71